sim
Sign-in with your pilot id or email,
or register
Callsign
Passwort

Schedule Details

Flight Number: DLH112 (1)
Departure: Frankfurt Airport (EDDF) at 15:20
Arrival: Munich Airport (EDDM) at 16:15
Route: Lufthansa Passenger Schedule. Enter filed route here before submitting Pirep.

Weather Information
Getting current METAR information for EDDF 240850Z 23015KT 9999 FEW038 18/07 Q1008 TEMPO 24015G25KT
Getting current METAR information for EDDM 240850Z 25008KT CAVOK 17/14 Q1011 NOSIG

Schedule Frequency

Route Map